Time;durP1;ratioP1;P1;durP2;ratioP2;P2;SDS_P1;SDS_P2;PMS_P1;PMS_P2;Temp;Humidity;BMP_temperature;BMP_pressure;BME280_temperature;BME280_humidity;BME280_pressure;Samples;Min_cycle;Max_cycle;Signal;HPM_P1;HPM_P2
2022/05/21 00:01:43;;;;;;;4.77;2.97;;;;;;;16.69;58.19;99864.09;5073946;28;20223;-62
2022/05/21 00:04:10;;;;;;;6.07;3.37;;;;;;;16.71;58.45;99864.06;5074018;28;20226;-62
2022/05/21 00:06:40;;;;;;;4.53;3.20;;;;;;;16.72;58.47;99864.09;5073579;28;20195;-61
2022/05/21 00:09:07;;;;;;;3.43;3.13;;;;;;;16.71;58.52;99854.56;5073820;28;20214;-62
2022/05/21 00:11:34;;;;;;;4.95;3.47;;;;;;;16.72;58.85;99860.63;5069145;28;20443;-61
2022/05/21 00:14:01;;;;;;;7.90;3.23;;;;;;;16.58;59.26;99855.47;5053857;28;20251;-61
2022/05/21 00:16:28;;;;;;;3.93;3.40;;;;;;;16.64;59.13;99858.06;5053932;28;20264;-62
2022/05/21 00:18:55;;;;;;;7.47;3.60;;;;;;;16.66;59.17;99858.03;5053513;28;20200;-62
2022/05/21 00:21:23;;;;;;;6.15;3.53;;;;;;;16.64;59.06;99852.00;5053110;28;20443;-61
2022/05/21 00:23:52;;;;;;;3.90;3.47;;;;;;;16.66;58.93;99851.13;5053460;28;20200;-62
2022/05/21 00:26:20;;;;;;;3.77;3.20;;;;;;;16.61;59.26;99846.81;5053174;28;20192;-62
2022/05/21 00:28:47;;;;;;;4.17;3.30;;;;;;;16.58;59.37;99852.00;5053216;28;20203;-62
2022/05/21 00:31:16;;;;;;;4.30;3.43;;;;;;;16.55;59.60;99847.69;5053162;28;20200;-62
2022/05/21 00:33:44;;;;;;;6.50;3.83;;;;;;;16.49;59.84;99845.06;5053417;28;20217;-62
2022/05/21 00:36:11;;;;;;;4.37;3.57;;;;;;;16.53;60.10;99849.44;5053118;28;20184;-62
2022/05/21 00:38:39;;;;;;;5.10;3.80;;;;;;;16.52;60.07;99853.72;5052971;28;20215;-61
2022/05/21 00:41:10;;;;;;;6.07;3.83;;;;;;;16.53;60.23;99847.66;5052872;28;20191;-61
2022/05/21 00:43:41;;;;;;;3.93;3.40;;;;;;;16.50;60.26;99846.81;5053146;28;20227;-61
2022/05/21 00:46:13;;;;;;;3.77;3.10;;;;;;;16.44;60.55;99852.00;5053204;28;20192;-62
2022/05/21 00:48:40;;;;;;;6.03;3.80;;;;;;;16.48;60.46;99845.94;5052318;28;20556;-62
2022/05/21 00:51:11;;;;;;;7.43;3.50;;;;;;;16.49;60.41;99845.06;5053133;28;21052;-61
2022/05/21 00:53:39;;;;;;;7.40;3.90;;;;;;;16.49;60.58;99858.03;5052545;28;20663;-62
2022/05/21 00:56:07;;;;;;;3.93;3.53;;;;;;;16.46;60.69;99856.31;5052929;28;20196;-62
2022/05/21 01:01:20;;;;;;;5.57;3.27;;;;;;;16.45;60.54;99851.97;5052642;28;20673;-61
2022/05/21 01:03:47;;;;;;;3.33;3.00;;;;;;;16.39;60.42;99848.56;5052775;28;20219;-63
2022/05/21 01:06:15;;;;;;;7.22;3.50;;;;;;;16.36;60.67;99845.97;5051964;28;20443;-62
2022/05/21 01:08:41;;;;;;;7.47;4.90;;;;;;;16.38;60.47;99849.41;5052456;28;20663;-62
2022/05/21 01:11:13;;;;;;;6.30;3.43;;;;;;;16.35;60.76;99844.22;5052725;28;20668;-62
2022/05/21 01:13:43;;;;;;;5.37;3.03;;;;;;;16.28;61.41;99834.72;5052824;28;20578;-62
2022/05/21 01:16:10;;;;;;;4.90;3.83;;;;;;;16.31;61.57;99840.78;5052061;28;20447;-62
2022/05/21 01:18:37;;;;;;;4.87;3.40;;;;;;;16.34;61.33;99832.97;5052569;28;20199;-63
2022/05/21 01:21:04;;;;;;;7.30;4.20;;;;;;;16.32;62.04;99837.31;5052638;28;20203;-62
2022/05/21 01:23:32;;;;;;;5.50;3.77;;;;;;;16.25;62.29;99832.16;5052228;28;20223;-62
2022/05/21 01:26:01;;;;;;;4.17;3.30;;;;;;;16.17;62.54;99826.09;5052434;28;20578;-62
2022/05/21 01:28:32;;;;;;;6.03;3.60;;;;;;;16.13;62.75;99825.22;5052254;28;20304;-62
2022/05/21 01:31:00;;;;;;;5.00;3.80;;;;;;;16.17;63.00;99826.09;5051357;28;20435;-62
2022/05/21 01:33:29;;;;;;;5.20;3.97;;;;;;;16.16;63.15;99816.59;5052154;28;20176;-62
2022/05/21 01:35:57;;;;;;;9.17;3.77;;;;;;;16.11;63.43;99819.19;5052133;28;20203;-62
2022/05/21 01:38:25;;;;;;;5.30;3.10;;;;;;;16.08;63.70;99814.00;5052050;28;20262;-61
2022/05/21 01:40:53;;;;;;;6.60;3.73;;;;;;;16.09;64.20;99814.88;5050748;28;20477;-62
2022/05/21 01:46:05;;;;;;;6.27;3.27;;;;;;;16.14;64.06;99813.13;5052228;28;20190;-62
2022/05/21 01:48:34;;;;;;;3.60;3.30;;;;;;;16.07;64.18;99819.22;5052032;28;20552;-63
2022/05/21 01:51:01;;;;;;;4.27;3.57;;;;;;;16.11;63.01;99813.13;5052047;28;20195;-62
2022/05/21 01:53:28;;;;;;;8.43;3.53;;;;;;;16.14;62.58;99813.13;5052124;28;20574;-62
2022/05/21 01:55:59;;;;;;;6.47;3.40;;;;;;;16.12;61.45;99807.97;5051722;28;20199;-62
2022/05/21 01:58:27;;;;;;;5.85;3.65;;;;;;;16.10;61.26;99808.81;5050686;28;20443;-63
2022/05/21 02:00:54;;;;;;;5.67;3.23;;;;;;;16.14;61.37;99814.00;5051967;28;20621;-62
2022/05/21 02:03:21;;;;;;;3.93;2.97;;;;;;;16.10;60.15;99806.22;5051208;28;20231;-63
2022/05/21 02:05:48;;;;;;;6.80;3.28;;;;;;;16.06;58.48;99801.91;5051197;28;20431;-62
2022/05/21 02:08:16;;;;;;;3.43;2.77;;;;;;;16.08;58.45;99807.97;5062295;28;20191;-62
2022/05/21 02:10:44;;;;;;;3.90;3.10;;;;;;;16.08;58.22;99802.78;5075583;28;20209;-62
2022/05/21 02:13:16;;;;;;;4.70;3.30;;;;;;;16.11;57.62;99802.78;5071011;28;20179;-62
2022/05/21 02:15:43;;;;;;;3.23;2.90;;;;;;;16.02;57.56;99797.59;5072987;28;20272;-63
2022/05/21 02:18:11;;;;;;;4.93;2.80;;;;;;;16.11;56.93;99803.63;5071152;28;20192;-62
2022/05/21 02:20:38;;;;;;;5.20;2.87;;;;;;;16.03;57.99;99802.78;5070964;28;20198;-62
2022/05/21 02:23:05;;;;;;;2.97;2.67;;;;;;;16.00;58.56;99801.91;5070978;28;20229;-63
2022/05/21 02:25:32;;;;;;;5.47;2.90;;;;;;;16.04;58.35;99801.06;5070006;28;20449;-63
2022/05/21 02:27:59;;;;;;;5.43;2.70;;;;;;;16.11;57.71;99800.19;5071026;28;20203;-62
2022/05/21 02:30:28;;;;;;;3.37;2.80;;;;;;;16.10;57.94;99801.03;5071129;28;20195;-63
2022/05/21 02:32:54;;;;;;;5.28;3.22;;;;;;;16.05;58.00;99801.06;5070356;28;20437;-63
2022/05/21 02:35:21;;;;;;;7.73;6.10;;;;;;;16.10;57.51;99798.44;5070810;28;20689;-63
2022/05/21 02:40:33;;;;;;;3.20;2.90;;;;;;;15.90;57.85;99791.53;5070905;28;20348;-62
2022/05/21 02:43:00;;;;;;;3.93;3.33;;;;;;;15.91;58.03;99801.06;5071113;28;20297;-63
2022/05/21 02:45:29;;;;;;;4.90;2.83;;;;;;;15.87;58.09;99795.88;5070684;28;20187;-62
2022/05/21 02:47:57;;;;;;;6.53;3.03;;;;;;;15.82;58.26;99790.69;5070845;28;20193;-63
2022/05/21 02:50:27;;;;;;;6.27;3.27;;;;;;;15.78;58.90;99788.97;5070444;28;20437;-62
2022/05/21 02:52:54;;;;;;;6.77;3.00;;;;;;;15.78;59.17;99794.16;5070752;28;20816;-62
2022/05/21 02:55:21;;;;;;;5.17;2.77;;;;;;;15.70;59.33;99801.06;5071208;28;20186;-62
2022/05/21 02:57:48;;;;;;;9.50;3.77;;;;;;;15.68;60.01;99788.97;5070853;28;20219;-62
2022/05/21 03:00:18;;;;;;;4.13;3.10;;;;;;;15.76;59.42;99800.22;5070143;28;20544;-62
2022/05/21 03:02:46;;;;;;;5.10;2.77;;;;;;;15.68;59.21;99796.75;5070668;28;20217;-62
2022/05/21 03:05:14;;;;;;;3.23;2.73;;;;;;;15.67;59.45;99795.88;5070740;28;20202;-62
2022/05/21 03:07:43;;;;;;;4.80;3.17;;;;;;;15.59;60.03;99796.72;5070349;28;20198;-62
2022/05/21 03:10:23;;;;;;;4.47;3.10;;;;;;;15.58;60.17;99795.88;5070692;28;20202;-62
2022/05/21 03:12:51;;;;;;;6.80;3.10;;;;;;;15.58;60.41;99785.50;5070346;28;20196;-61
2022/05/21 03:15:20;;;;;;;5.57;3.10;;;;;;;15.53;60.66;99789.81;5070186;28;20543;-61
2022/05/21 03:17:49;;;;;;;4.00;3.50;;;;;;;15.57;60.70;99788.09;5069750;28;20503;-63
2022/05/21 03:20:19;;;;;;;3.27;2.97;;;;;;;15.62;60.25;99801.91;5070269;28;20231;-63
2022/05/21 03:22:46;;;;;;;6.07;3.43;;;;;;;15.74;59.98;99809.72;5070152;28;20292;-62
2022/05/21 03:25:13;;;;;;;8.37;3.50;;;;;;;15.80;59.87;99795.00;5070199;28;20464;-62
2022/05/21 03:27:41;;;;;;;3.83;3.33;;;;;;;15.81;59.85;99807.13;5070258;28;20438;-62
2022/05/21 03:30:11;;;;;;;4.33;2.80;;;;;;;15.78;59.42;99814.00;5070422;28;20207;-63
2022/05/21 03:32:38;;;;;;;3.63;3.30;;;;;;;15.72;58.92;99809.69;5070093;28;20197;-63
2022/05/21 03:35:09;;;;;;;3.93;3.07;;;;;;;15.70;58.46;99805.38;5070321;28;20195;-63
2022/05/21 03:37:37;;;;;;;4.63;2.97;;;;;;;15.61;58.65;99802.78;5069886;28;20735;-61
2022/05/21 03:40:04;;;;;;;3.73;2.77;;;;;;;15.68;58.53;99804.53;5069933;28;20262;-63
2022/05/21 03:42:31;;;;;;;4.70;2.90;;;;;;;15.67;58.34;99806.25;5069683;28;20210;-62
2022/05/21 03:44:58;;;;;;;6.18;3.05;;;;;;;15.83;58.55;99801.91;5068815;28;20442;-61
2022/05/21 03:47:25;;;;;;;3.17;2.87;;;;;;;15.94;57.96;99802.78;5069708;28;20189;-62
2022/05/21 03:49:52;;;;;;;5.73;3.00;;;;;;;15.98;57.79;99808.84;5069737;28;20203;-62
2022/05/21 03:52:20;;;;;;;5.38;3.78;;;;;;;16.00;58.12;99804.50;5069350;28;20438;-63
2022/05/21 03:54:47;;;;;;;4.67;3.30;;;;;;;16.07;58.12;99809.69;5069631;28;20200;-63
2022/05/21 03:57:15;;;;;;;6.40;3.23;;;;;;;16.10;57.85;99811.41;5069947;28;20200;-62
2022/05/21 03:59:42;;;;;;;12.83;3.23;;;;;;;16.11;58.15;99810.53;5069747;28;20229;-63
2022/05/21 04:02:10;;;;;;;6.07;3.07;;;;;;;16.17;58.40;99811.41;5069608;28;20286;-62
2022/05/21 04:04:37;;;;;;;3.27;3.00;;;;;;;16.21;57.80;99810.53;5069863;28;20229;-63
2022/05/21 04:07:04;;;;;;;3.60;2.50;;;;;;;16.21;57.26;99807.94;5069617;28;20203;-63
2022/05/21 04:09:33;;;;;;;4.68;2.85;;;;;;;16.27;57.10;99813.13;5069461;28;20438;-63
2022/05/21 04:12:00;;;;;;;4.13;3.20;;;;;;;16.19;57.00;99795.84;5069962;28;20218;-63
2022/05/21 04:14:28;;;;;;;3.57;2.90;;;;;;;16.35;57.30;99815.69;5069820;28;20210;-63
2022/05/21 04:16:55;;;;;;;2.80;2.53;;;;;;;16.29;57.54;99806.19;5069840;28;20198;-63
2022/05/21 04:19:23;;;;;;;3.22;2.92;;;;;;;16.40;57.42;99814.81;5068737;28;20440;-63
2022/05/21 04:21:50;;;;;;;3.77;3.00;;;;;;;16.46;57.32;99811.34;5069861;28;20194;-62
2022/05/21 04:24:17;;;;;;;4.37;3.30;;;;;;;16.47;57.36;99807.91;5069612;28;20223;-63
2022/05/21 04:26:46;;;;;;;6.23;2.80;;;;;;;16.45;57.21;99807.03;5070040;28;20222;-61
2022/05/21 04:29:14;;;;;;;5.37;3.20;;;;;;;16.48;57.09;99807.88;5073188;28;20188;-62
2022/05/21 04:31:41;;;;;;;3.63;3.23;;;;;;;16.52;57.02;99804.44;5073176;28;20662;-61
2022/05/21 04:34:08;;;;;;;4.40;3.10;;;;;;;16.57;57.13;99809.63;5072923;28;20690;-62
2022/05/21 04:36:35;;;;;;;5.10;3.30;;;;;;;16.60;57.60;99804.44;5072490;28;20434;-63
2022/05/21 04:39:02;;;;;;;4.60;2.80;;;;;;;16.65;57.67;99804.41;5072785;28;20856;-62
2022/05/21 04:41:29;;;;;;;6.67;3.30;;;;;;;16.68;57.53;99807.84;5072720;28;20205;-62
2022/05/21 04:43:57;;;;;;;5.20;3.47;;;;;;;16.70;57.48;99813.91;5072780;28;20213;-63
2022/05/21 04:46:25;;;;;;;3.43;3.13;;;;;;;16.68;57.07;99805.25;5072947;28;20608;-63
2022/05/21 04:48:53;;;;;;;4.27;3.50;;;;;;;16.73;57.37;99811.28;5072697;28;20206;-63
2022/05/21 04:51:20;;;;;;;3.97;3.60;;;;;;;16.75;57.65;99806.13;5072618;28;20188;-63
2022/05/21 04:53:47;;;;;;;3.97;3.53;;;;;;;16.81;57.84;99801.75;5072853;28;20262;-63
2022/05/21 04:56:14;;;;;;;5.10;3.60;;;;;;;16.90;57.38;99809.50;5072559;28;20199;-58
2022/05/21 04:58:41;;;;;;;7.60;3.97;;;;;;;17.02;57.07;99808.59;5072658;28;20191;-58
2022/05/21 05:01:10;;;;;;;6.60;3.33;;;;;;;17.07;56.60;99802.50;5072375;28;20685;-58
2022/05/21 05:03:37;;;;;;;5.78;3.55;;;;;;;17.15;56.64;99799.00;5071546;28;20506;-58
2022/05/21 05:06:04;;;;;;;7.47;3.73;;;;;;;17.23;55.50;99803.28;5072543;28;20202;-58
2022/05/21 05:08:31;;;;;;;5.47;3.03;;;;;;;17.30;55.65;99814.50;5072573;28;20190;-58
2022/05/21 05:10:58;;;;;;;4.60;3.20;;;;;;;17.37;55.78;99811.00;5072035;28;20434;-58
2022/05/21 05:13:24;;;;;;;4.70;3.80;;;;;;;17.42;55.21;99814.41;5071860;28;20198;-58
2022/05/21 05:15:51;;;;;;;6.73;3.50;;;;;;;17.47;55.40;99807.50;5072068;28;20191;-58
2022/05/21 05:18:22;;;;;;;5.10;3.30;;;;;;;17.63;55.54;99809.97;5072098;28;20191;-57
2022/05/21 05:20:50;;;;;;;5.27;3.60;;;;;;;17.67;54.54;99800.44;5072265;28;20282;-58
2022/05/21 05:23:17;;;;;;;5.23;3.23;;;;;;;17.73;53.67;99808.19;5071903;28;20254;-57
2022/05/21 05:25:44;;;;;;;4.53;3.13;;;;;;;17.83;54.15;99803.75;5071721;28;20199;-57
2022/05/21 05:28:16;;;;;;;4.20;3.80;;;;;;;17.91;54.04;99805.41;5072087;28;20574;-57
2022/05/21 05:30:43;;;;;;;3.70;3.40;;;;;;;17.97;52.02;99809.72;5070782;28;20446;-58
2022/05/21 05:33:10;;;;;;;4.90;2.93;;;;;;;17.98;50.75;99808.84;5071642;28;20195;-58
2022/05/21 05:35:38;;;;;;;3.97;3.57;;;;;;;18.01;51.44;99821.81;5071967;28;20198;-58
2022/05/21 05:38:07;;;;;;;6.50;3.78;;;;;;;18.03;52.32;99822.66;5070841;28;20905;-58
2022/05/21 05:40:35;;;;;;;5.07;3.73;;;;;;;18.06;52.75;99813.09;5071169;28;20989;-57
2022/05/21 05:43:02;;;;;;;5.13;4.07;;;;;;;18.12;52.46;99813.06;5071627;28;20191;-59
2022/05/21 05:45:29;;;;;;;3.90;3.50;;;;;;;18.16;52.13;99811.28;5071439;28;20219;-58
2022/05/21 05:47:56;;;;;;;4.03;3.50;;;;;;;18.13;52.05;99804.34;5071566;28;20227;-58
2022/05/21 05:50:23;;;;;;;4.00;3.40;;;;;;;18.19;50.68;99800.84;5071284;28;20282;-58
2022/05/21 05:52:51;;;;;;;4.53;3.57;;;;;;;18.25;50.87;99813.78;5071423;28;20206;-58
2022/05/21 05:55:18;;;;;;;5.00;3.20;;;;;;;18.17;51.01;99808.66;5071053;28;20190;-58
2022/05/21 05:57:50;;;;;;;3.78;3.40;;;;;;;18.28;51.06;99812.03;5070206;28;20423;-58
2022/05/21 06:00:17;;;;;;;4.53;3.07;;;;;;;18.44;50.16;99806.66;5071390;28;20245;-58
2022/05/21 06:02:59;;;;;;;5.97;3.50;;;;;;;18.60;50.02;99811.72;5071020;28;21054;-59
2022/05/21 06:05:28;;;;;;;7.90;3.50;;;;;;;18.59;47.87;99810.00;5070762;28;20445;-58
2022/05/21 06:07:59;;;;;;;3.42;3.13;;;;;;;18.64;48.47;99813.41;5069945;28;20449;-59
2022/05/21 06:10:29;;;;;;;5.20;2.80;;;;;;;18.70;47.13;99805.53;5071039;28;20198;-58
2022/05/21 06:12:56;;;;;;;3.37;3.07;;;;;;;18.81;48.05;99795.88;5071139;28;20203;-59
2022/05/21 06:15:23;;;;;;;4.23;3.30;;;;;;;18.85;47.63;99796.66;5070934;28;20211;-58
2022/05/21 06:17:52;;;;;;;4.00;3.00;;;;;;;18.83;47.63;99793.25;5070767;28;20679;-58
2022/05/21 06:20:20;;;;;;;6.80;3.90;;;;;;;18.87;48.26;99794.06;5051671;28;20447;-58
2022/05/21 06:22:48;;;;;;;4.33;3.23;;;;;;;19.00;48.11;99786.06;5051071;28;20211;-58
2022/05/21 06:25:18;;;;;;;4.27;2.77;;;;;;;18.97;46.66;99787.84;5070526;28;20219;-58
2022/05/21 06:27:46;;;;;;;5.60;2.90;;;;;;;18.97;47.40;99791.31;5070446;28;20227;-58
2022/05/21 06:30:14;;;;;;;3.57;2.30;;;;;;;19.05;46.74;99786.88;5070525;28;20199;-62
2022/05/21 06:32:41;;;;;;;3.23;2.93;;;;;;;19.05;47.54;99784.28;5070389;28;20206;-62
2022/05/21 06:35:10;;;;;;;3.40;3.10;;;;;;;19.18;47.74;99785.81;5070809;28;20195;-62
2022/05/21 06:37:37;;;;;;;4.37;2.87;;;;;;;19.27;47.18;99780.50;5070371;28;20195;-61
2022/05/21 06:40:06;;;;;;;4.47;2.93;;;;;;;19.32;47.75;99768.25;5070218;28;20231;-63
2022/05/21 06:42:35;;;;;;;6.60;3.77;;;;;;;19.29;47.78;99768.28;5070173;28;20199;-63
2022/05/21 06:45:02;;;;;;;5.23;3.20;;;;;;;19.47;48.49;99764.59;5069870;28;20454;-63
2022/05/21 06:47:29;;;;;;;5.88;3.40;;;;;;;19.67;48.29;99761.66;5069444;28;20919;-63
2022/05/21 06:49:57;;;;;;;5.17;3.43;;;;;;;19.80;48.31;99758.84;5069820;28;20210;-63
2022/05/21 06:52:25;;;;;;;3.77;2.97;;;;;;;19.95;47.14;99749.88;5070365;28;20281;-63
2022/05/21 06:54:52;;;;;;;4.43;3.50;;;;;;;20.15;48.03;99752.13;5070267;28;20192;-63
2022/05/21 06:57:21;;;;;;;5.68;3.40;;;;;;;20.31;47.37;99745.75;5069643;28;20448;-62
2022/05/21 06:59:49;;;;;;;3.53;2.93;;;;;;;20.47;46.63;99755.00;5070214;28;20202;-62
2022/05/21 07:02:16;;;;;;;4.50;2.80;;;;;;;20.53;45.74;99757.50;5069886;28;20218;-63
2022/05/21 07:07:43;;;;;;;4.93;3.13;;;;;;;20.71;45.08;99735.41;5069788;28;20723;-63
2022/05/21 07:10:12;;;;;;;3.13;2.70;;;;;;;20.82;45.32;99734.25;5070123;28;20212;-63
2022/05/21 07:12:39;;;;;;;5.90;3.67;;;;;;;20.94;45.31;99722.69;5064105;28;20195;-63
2022/05/21 07:15:09;;;;;;;3.83;2.90;;;;;;;21.01;43.74;99714.69;5068929;28;20612;-62
2022/05/21 07:17:36;;;;;;;3.37;3.07;;;;;;;21.05;44.01;99711.13;5069838;28;20334;-63
2022/05/21 07:20:04;;;;;;;7.43;3.10;;;;;;;21.17;43.91;99702.19;5069760;28;20196;-62
2022/05/21 07:22:31;;;;;;;6.60;4.60;;;;;;;21.28;42.68;99699.31;5069571;28;20430;-63
2022/05/21 07:24:59;;;;;;;4.77;3.30;;;;;;;21.37;42.36;99696.47;5069400;28;20469;-62
2022/05/21 07:27:26;;;;;;;4.13;2.80;;;;;;;21.42;42.32;99692.84;5069734;28;20204;-62
2022/05/21 07:29:53;;;;;;;5.47;3.23;;;;;;;21.54;41.61;99689.06;5069850;28;20213;-63
2022/05/21 07:32:24;;;;;;;5.37;3.20;;;;;;;21.62;41.88;99676.63;5068752;28;20445;-63
2022/05/21 07:34:57;;;;;;;5.50;2.90;;;;;;;21.86;41.16;99677.78;5069859;28;20202;-63
2022/05/21 07:37:24;;;;;;;6.53;2.90;;;;;;;22.01;41.27;99673.03;5069021;28;20895;-63
2022/05/21 07:39:51;;;;;;;3.23;2.80;;;;;;;21.94;40.86;99668.00;5069193;28;20300;-63
2022/05/21 07:42:18;;;;;;;2.50;2.30;;;;;;;22.04;40.24;99667.72;5069348;28;20179;-62
2022/05/21 07:44:45;;;;;;;9.23;3.30;;;;;;;22.09;40.37;99659.72;5069246;28;20264;-63
2022/05/21 07:47:12;;;;;;;7.85;3.78;;;;;;;22.08;39.89;99631.84;5068893;28;20438;-63
2022/05/21 07:49:40;;;;;;;4.33;2.80;;;;;;;22.28;39.30;99648.69;5069582;28;20183;-64
2022/05/21 07:52:08;;;;;;;8.97;3.03;;;;;;;22.37;39.80;99644.94;5069168;28;20523;-64
2022/05/21 07:54:35;;;;;;;4.20;2.90;;;;;;;22.44;39.56;99646.50;5069549;28;20196;-63
2022/05/21 07:57:02;;;;;;;4.93;3.10;;;;;;;22.49;38.82;99639.38;5069106;28;20654;-63
2022/05/21 07:59:30;;;;;;;6.17;2.90;;;;;;;22.64;40.06;99635.44;5069170;28;20187;-63
2022/05/21 08:01:57;;;;;;;4.73;3.20;;;;;;;22.66;39.39;99624.00;5069318;28;20202;-63
2022/05/21 08:04:23;;;;;;;4.97;2.80;;;;;;;22.78;39.21;99621.03;5072545;28;20445;-63
2022/05/21 08:06:52;;;;;;;3.77;3.37;;;;;;;22.83;38.88;99618.25;5073281;28;20188;-62
2022/05/21 08:09:19;;;;;;;3.73;3.20;;;;;;;22.84;39.38;99619.97;5073564;28;20183;-63
2022/05/21 08:11:46;;;;;;;5.00;3.10;;;;;;;22.73;39.56;99622.06;5073206;28;20200;-64
2022/05/21 08:14:12;;;;;;;4.30;2.90;;;;;;;22.89;39.57;99616.31;5072931;28;20180;-61
2022/05/21 08:16:39;;;;;;;3.10;2.87;;;;;;;22.91;37.29;99613.63;5073338;28;20187;-63
2022/05/21 08:19:06;;;;;;;2.40;2.20;;;;;;;22.92;35.84;99616.22;5072936;28;20690;-63
2022/05/21 08:21:33;;;;;;;5.07;2.50;;;;;;;22.87;35.57;99612.88;5072862;28;20191;-63
2022/05/21 08:26:57;;;;;;;7.07;2.70;;;;;;;23.15;36.70;99596.25;5072358;28;20582;-62
2022/05/21 08:29:26;;;;;;;6.03;2.40;;;;;;;23.10;35.45;99606.03;5072211;28;20729;-62
2022/05/21 08:31:52;;;;;;;4.68;2.72;;;;;;;23.05;35.26;99594.84;5071595;28;20994;-62
2022/05/21 08:34:19;;;;;;;9.57;4.93;;;;;;;23.25;36.23;99595.03;5072038;28;20192;-63
2022/05/21 08:36:47;;;;;;;9.70;2.97;;;;;;;23.42;35.77;99600.63;5072305;28;20607;-62
2022/05/21 08:39:16;;;;;;;4.17;2.70;;;;;;;23.45;36.30;99596.13;5071902;28;20223;-63
2022/05/21 08:41:46;;;;;;;6.47;2.70;;;;;;;23.46;35.62;99602.19;5071995;28;20738;-62
2022/05/21 08:44:19;;;;;;;6.77;2.93;;;;;;;23.53;35.13;99587.13;5072162;28;20223;-62
2022/05/21 08:47:05;;;;;;;3.70;2.73;;;;;;;23.67;34.15;99579.63;5072261;28;20180;-63
2022/05/21 08:49:36;;;;;;;6.67;2.93;;;;;;;23.81;34.94;99578.22;5071922;28;20226;-63
2022/05/21 08:52:15;;;;;;;3.57;2.57;;;;;;;23.96;33.91;99580.28;5071744;28;20232;-62
2022/05/21 08:54:48;;;;;;;7.20;2.70;;;;;;;24.16;32.67;99573.47;5071648;28;20187;-63
2022/05/21 08:57:27;;;;;;;3.07;2.83;;;;;;;24.35;32.57;99569.22;5071399;28;20627;-62
2022/05/21 08:59:59;;;;;;;2.63;2.13;;;;;;;24.46;31.26;99561.78;5071558;28;20196;-63
2022/05/21 09:02:30;;;;;;;2.70;2.33;;;;;;;24.55;31.27;99564.06;5071830;28;20187;-63
2022/05/21 09:04:57;;;;;;;4.90;2.27;;;;;;;24.60;32.33;99555.09;5071376;28;20704;-56
2022/05/21 09:07:28;;;;;;;3.10;2.10;;;;;;;24.47;31.62;99560.88;5071575;28;20210;-57
2022/05/21 09:10:20;;;;;;;2.63;2.40;;;;;;;24.53;31.22;99540.47;5071963;28;20188;-57
2022/05/21 09:12:54;;;;;;;4.83;2.33;;;;;;;24.67;31.60;99540.78;5071573;28;20199;-56
2022/05/21 09:18:09;;;;;;;4.93;2.50;;;;;;;24.97;31.69;99532.59;5071645;28;20190;-56
2022/05/21 09:20:46;;;;;;;6.53;5.90;;;;;;;25.14;30.91;99532.72;5071312;28;20191;-57
2022/05/21 09:23:13;;;;;;;4.70;2.63;;;;;;;25.40;31.24;99526.38;5071544;28;20194;-56
2022/05/21 09:25:41;;;;;;;2.50;2.30;;;;;;;25.46;29.66;99523.47;5070986;28;20234;-56
2022/05/21 09:28:11;;;;;;;3.30;2.20;;;;;;;25.63;29.69;99519.19;5070904;28;20206;-56
2022/05/21 09:30:41;;;;;;;4.57;2.97;;;;;;;25.64;29.14;99526.16;5070573;28;20192;-57
2022/05/21 09:33:26;;;;;;;5.57;2.70;;;;;;;25.73;28.66;99522.28;5071278;28;20256;-57
2022/05/21 09:35:55;;;;;;;3.13;2.83;;;;;;;25.79;29.55;99511.47;5070951;28;20512;-57
2022/05/21 09:38:25;;;;;;;5.00;2.77;;;;;;;25.95;28.98;99515.13;5070999;28;20202;-57
2022/05/21 09:41:09;;;;;;;8.10;3.43;;;;;;;26.12;29.65;99507.25;5070564;28;20575;-57
2022/05/21 09:46:26;;;;;;;3.70;3.07;;;;;;;26.32;28.78;99504.59;5070758;28;20213;-56
2022/05/21 09:48:55;;;;;;;5.67;3.33;;;;;;;26.43;28.91;99495.31;5071085;28;20195;-58
2022/05/21 09:51:25;;;;;;;5.27;2.60;;;;;;;26.50;27.74;99486.19;5070153;28;20433;-57
2022/05/21 09:53:53;;;;;;;3.87;3.10;;;;;;;26.57;28.75;99479.69;5070635;28;20199;-57
2022/05/21 09:56:23;;;;;;;4.60;3.55;;;;;;;26.70;27.22;99483.44;5070395;28;20662;-57
2022/05/21 09:58:52;;;;;;;5.83;3.97;;;;;;;26.74;27.42;99477.94;5070630;28;20191;-57
2022/05/21 10:01:38;;;;;;;7.03;5.90;;;;;;;26.87;27.24;99484.31;5070120;28;20187;-58
2022/05/21 10:04:15;;;;;;;3.53;2.35;;;;;;;26.89;26.26;99473.72;5070559;28;20228;-57
2022/05/21 10:06:46;;;;;;;2.40;2.13;;;;;;;26.99;24.25;99477.59;5069611;28;20219;-57
2022/05/21 10:12:11;;;;;;;2.15;1.98;;;;;;;27.01;22.99;99477.50;5069748;28;20705;-56
2022/05/21 10:14:43;;;;;;;2.42;1.95;;;;;;;27.02;22.59;99476.56;5070143;28;20195;-57
2022/05/21 10:17:19;;;;;;;2.10;1.90;;;;;;;26.78;23.34;99479.50;5070103;28;20218;-57
2022/05/21 10:19:54;;;;;;;4.50;2.50;;;;;;;27.04;23.91;99472.06;5070452;28;20202;-57
2022/05/21 10:22:31;;;;;;;2.90;2.60;;;;;;;27.25;23.57;99471.81;5070151;28;20195;-57
2022/05/21 10:25:06;;;;;;;2.83;2.30;;;;;;;27.36;23.52;99466.00;5069563;28;20222;-57
2022/05/21 10:28:03;;;;;;;3.85;2.10;;;;;;;27.48;24.08;99468.00;5068628;28;20448;-57
2022/05/21 10:30:58;;;;;;;3.90;2.17;;;;;;;27.14;24.05;99468.88;5063525;28;20191;-57
2022/05/21 10:33:41;;;;;;;8.40;2.55;;;;;;;27.06;24.05;99465.78;5070046;28;20202;-57
2022/05/21 10:36:30;;;;;;;3.93;2.20;;;;;;;26.81;24.45;99446.88;5069524;28;20199;-57
2022/05/21 10:39:13;;;;;;;3.17;1.90;;;;;;;26.87;24.50;99460.59;5069845;28;20223;-57
2022/05/21 10:42:00;;;;;;;2.40;2.17;;;;;;;27.09;24.27;99462.97;5069835;28;20195;-56
2022/05/21 10:44:41;;;;;;;4.93;2.13;;;;;;;27.24;23.81;99456.91;5069664;28;20245;-56
2022/05/21 10:47:21;;;;;;;4.15;2.60;;;;;;;27.29;23.76;99454.88;5069993;28;20214;-56
2022/05/21 10:50:10;;;;;;;4.65;2.30;;;;;;;27.40;23.42;99447.28;5069926;28;20187;-58
2022/05/21 10:53:02;;;;;;;2.50;2.22;;;;;;;27.56;24.12;99449.09;5069885;28;20528;-58
2022/05/21 10:55:41;;;;;;;3.90;2.42;;;;;;;27.80;24.56;99439.88;5070154;28;20228;-56
2022/05/21 10:58:46;;;;;;;2.67;1.80;;;;;;;27.99;23.61;99437.91;5069666;28;20282;-57
2022/05/21 11:01:16;;;;;;;4.45;2.38;;;;;;;28.02;23.29;99443.91;5049147;28;20195;-57
2022/05/21 11:04:22;;;;;;;2.40;2.20;;;;;;;28.22;24.05;99429.56;5069768;28;20206;-57
2022/05/21 11:07:08;;;;;;;3.53;2.10;;;;;;;28.34;23.81;99428.03;5069283;28;20215;-57
2022/05/21 11:09:40;;;;;;;4.50;2.47;;;;;;;28.39;23.06;99434.75;5069418;28;20248;-57
2022/05/21 11:12:15;;;;;;;3.60;2.10;;;;;;;28.44;23.04;99430.06;5068250;28;20803;-57
2022/05/21 11:14:46;;;;;;;3.55;3.25;;;;;;;28.52;21.07;99438.38;5069511;28;20201;-57
2022/05/21 11:17:24;;;;;;;3.72;2.22;;;;;;;28.56;21.48;99426.72;5069480;28;20214;-57
2022/05/21 11:19:57;;;;;;;2.45;1.90;;;;;;;28.59;21.30;99433.59;5068857;28;20437;-57
2022/05/21 11:22:30;;;;;;;2.78;2.35;;;;;;;28.75;21.86;99423.88;5069502;28;20677;-56
2022/05/21 11:25:05;;;;;;;3.50;2.40;;;;;;;28.84;22.53;99425.13;5069570;28;20195;-57
2022/05/21 11:27:37;;;;;;;5.32;2.35;;;;;;;28.92;22.09;99420.22;5069208;28;20202;-56
2022/05/21 11:30:08;;;;;;;4.13;1.88;;;;;;;29.02;22.61;99414.28;5069476;28;20195;-57
2022/05/21 11:38:21;;;;;;;3.47;2.22;;;;;;;28.86;21.73;99378.25;5071164;28;20416;-58
2022/05/21 11:47:18;;;;;;;4.35;1.83;;;;;;;29.24;21.90;99382.09;5072115;28;20437;-57
2022/05/21 11:49:50;;;;;;;4.05;2.00;;;;;;;29.32;21.44;99374.53;5073052;28;20191;-58
2022/05/21 11:53:04;;;;;;;2.47;2.03;;;;;;;29.41;22.48;99365.16;5073438;28;20194;-57
2022/05/21 11:56:00;;;;;;;9.43;6.05;;;;;;;29.54;22.50;99355.50;5073334;28;20192;-57
2022/05/21 11:59:18;;;;;;;2.92;2.00;;;;;;;29.60;21.94;99353.31;5072930;28;20195;-57
2022/05/21 12:02:10;;;;;;;1.88;1.67;;;;;;;29.26;21.50;99351.06;5073215;28;20196;-57
2022/05/21 12:04:53;;;;;;;3.45;1.80;;;;;;;29.22;21.93;99354.88;5072415;28;20437;-57
2022/05/21 12:07:53;;;;;;;2.05;1.75;;;;;;;29.29;22.23;99345.59;5073404;28;20856;-57
2022/05/21 12:10:24;;;;;;;4.07;1.73;;;;;;;29.48;22.10;99335.53;5073082;28;20195;-57
2022/05/21 12:13:17;;;;;;;2.20;2.00;;;;;;;29.61;21.50;99325.84;5072603;28;20985;-59
2022/05/21 12:15:47;;;;;;;2.00;1.88;;;;;;;29.74;22.31;99315.34;5073172;28;20191;-57
2022/05/21 12:18:39;;;;;;;2.30;1.90;;;;;;;29.87;20.70;99310.13;5073311;28;20237;-58
2022/05/21 12:21:07;;;;;;;1.80;1.70;;;;;;;29.80;20.18;99299.91;5072924;28;20199;-57
2022/05/21 12:24:02;;;;;;;2.47;1.80;;;;;;;29.80;21.10;99278.72;5072766;28;20207;-58
2022/05/21 12:26:30;;;;;;;4.28;2.40;;;;;;;30.06;20.13;99277.00;5070970;28;20219;-57